createdAt,value
2022-09-20T00:01:28.990Z,13.21
2022-09-20T00:04:01.127Z,13.25
2022-09-20T00:10:19.019Z,13.22
2022-09-20T00:12:45.525Z,13.23
2022-09-20T00:15:14.339Z,13.21
2022-09-20T00:17:40.839Z,13.15
2022-09-20T00:20:07.793Z,13.21
2022-09-20T00:22:34.282Z,13.15
2022-09-20T00:25:00.769Z,13.09
2022-09-20T00:27:29.754Z,13.02
2022-09-20T00:29:56.562Z,12.91
2022-09-20T00:32:23.129Z,12.78
2022-09-20T00:35:08.133Z,12.83
2022-09-20T00:37:35.736Z,12.86
2022-09-20T00:40:03.921Z,12.77
2022-09-20T00:42:31.531Z,12.71
2022-09-20T00:45:19.662Z,12.65
2022-09-20T00:47:49.275Z,12.64
2022-09-20T00:50:28.279Z,12.62
2022-09-20T00:53:00.154Z,12.63
2022-09-20T00:55:27.880Z,12.64
2022-09-20T00:57:55.113Z,12.62
2022-09-20T01:00:21.829Z,12.62
2022-09-20T01:02:53.888Z,12.66
2022-09-20T01:05:23.166Z,12.67
2022-09-20T01:07:52.961Z,12.69
2022-09-20T01:10:19.551Z,12.67
2022-09-20T01:12:51.463Z,12.71
2022-09-20T01:15:18.418Z,12.72
2022-09-20T01:17:52.993Z,12.71
2022-09-20T01:20:29.256Z,12.67
2022-09-20T01:23:33.557Z,12.71
2022-09-20T01:26:12.332Z,12.71
2022-09-20T01:28:42.195Z,12.72
2022-09-20T01:31:14.503Z,12.73
2022-09-20T01:33:53.119Z,12.75
2022-09-20T01:36:44.331Z,12.76
2022-09-20T01:39:19.865Z,12.79
2022-09-20T01:42:07.490Z,12.77
2022-09-20T01:44:53.170Z,12.76
2022-09-20T01:47:19.624Z,12.76
2022-09-20T01:50:01.288Z,12.76
2022-09-20T01:52:56.076Z,12.74
2022-09-20T01:55:39.153Z,12.68
2022-09-20T01:58:20.826Z,12.64
2022-09-20T02:01:19.632Z,12.60
2022-09-20T02:04:20.214Z,12.57
2022-09-20T02:07:23.893Z,12.56
2022-09-20T02:10:23.838Z,12.55
2022-09-20T02:12:50.335Z,12.55
2022-09-20T02:15:36.572Z,12.56
2022-09-20T02:18:36.053Z,12.57
2022-09-20T02:21:21.011Z,12.57
2022-09-20T02:24:03.550Z,12.61
2022-09-20T02:26:38.040Z,12.59
2022-09-20T02:30:01.842Z,12.62
2022-09-20T02:32:37.349Z,12.63
2022-09-20T02:35:35.392Z,12.60
2022-09-20T02:38:26.577Z,12.62
2022-09-20T02:41:04.146Z,12.61
2022-09-20T02:43:45.948Z,12.56
2022-09-20T02:46:35.248Z,12.58
2022-09-20T02:49:29.021Z,12.54
2022-09-20T02:52:02.777Z,12.54
2022-09-20T02:54:46.699Z,12.60
2022-09-20T02:57:42.394Z,12.61
2022-09-20T03:00:22.234Z,12.60
2022-09-20T03:03:11.322Z,12.61
2022-09-20T03:05:58.559Z,12.75
2022-09-20T03:08:59.495Z,12.66
2022-09-20T03:11:32.639Z,12.74
2022-09-20T03:13:59.245Z,12.71
2022-09-20T03:16:35.071Z,12.70
2022-09-20T03:19:26.015Z,12.64
2022-09-20T03:22:19.630Z,12.69
2022-09-20T03:25:01.179Z,12.70
2022-09-20T03:28:03.861Z,12.69
2022-09-20T03:30:48.825Z,12.70
2022-09-20T03:33:26.557Z,12.71
2022-09-20T03:36:22.995Z,12.74
2022-09-20T03:39:08.525Z,12.75
2022-09-20T03:41:47.158Z,12.75
2022-09-20T03:44:48.238Z,12.75
2022-09-20T03:47:42.969Z,12.76
2022-09-20T03:50:24.766Z,12.75
2022-09-20T03:52:59.195Z,12.76
2022-09-20T03:55:31.832Z,12.76
2022-09-20T03:58:13.287Z,12.76
2022-09-20T04:00:45.870Z,12.76
2022-09-20T04:03:50.622Z,12.74
2022-09-20T04:06:42.648Z,12.69
2022-09-20T04:09:11.378Z,12.71
2022-09-20T04:11:44.471Z,12.64
2022-09-20T04:14:30.406Z,12.68
2022-09-20T04:17:44.788Z,12.68
2022-09-20T04:20:17.866Z,12.64
2022-09-20T04:22:51.096Z,12.66
2022-09-20T04:25:22.579Z,12.69
2022-09-20T04:27:57.265Z,12.72
2022-09-20T04:30:33.719Z,12.70
2022-09-20T04:33:20.933Z,12.56
2022-09-20T04:36:28.054Z,12.67
2022-09-20T04:39:38.116Z,12.71
2022-09-20T04:42:38.808Z,12.71
2022-09-20T04:45:45.387Z,12.70
2022-09-20T04:48:44.474Z,12.67
2022-09-20T04:51:40.748Z,12.62
2022-09-20T04:54:38.267Z,12.57
2022-09-20T04:57:29.206Z,12.51
2022-09-20T05:00:14.111Z,12.38
2022-09-20T05:03:14.659Z,12.31
2022-09-20T05:06:14.396Z,12.23
2022-09-20T05:09:19.473Z,12.15
2022-09-20T05:11:47.237Z,12.11
2022-09-20T05:14:37.302Z,12.06
2022-09-20T05:17:30.588Z,12.05
2022-09-20T05:20:05.867Z,12.08
2022-09-20T05:22:53.781Z,12.11
2022-09-20T05:25:22.993Z,12.11
2022-09-20T05:28:21.763Z,12.13
2022-09-20T05:30:54.268Z,12.11
2022-09-20T05:33:28.202Z,12.16
2022-09-20T05:35:57.438Z,12.20
2022-09-20T05:38:36.624Z,12.25
2022-09-20T05:41:07.599Z,12.32
2022-09-20T05:43:43.122Z,12.36
2022-09-20T05:46:34.716Z,12.42
2022-09-20T05:49:35.347Z,12.47
2022-09-20T05:52:23.180Z,12.51
2022-09-20T05:54:55.693Z,12.55
2022-09-20T05:57:39.806Z,12.56
2022-09-20T06:00:19.654Z,12.59
2022-09-20T06:03:02.757Z,12.58
2022-09-20T06:05:55.736Z,12.64
2022-09-20T06:08:31.399Z,12.67
2022-09-20T06:11:10.238Z,12.68
2022-09-20T06:13:51.365Z,12.65
2022-09-20T06:16:31.273Z,12.71
2022-09-20T06:19:15.195Z,12.75
2022-09-20T06:21:52.351Z,12.78
2022-09-20T06:24:46.319Z,12.85
2022-09-20T06:27:21.191Z,12.93
2022-09-20T06:30:00.299Z,13.05
2022-09-20T06:32:29.081Z,13.15
2022-09-20T06:34:55.889Z,13.37
2022-09-20T06:37:47.038Z,13.49
2022-09-20T06:40:59.077Z,13.71
2022-09-20T06:43:25.698Z,13.89
2022-09-20T06:45:54.751Z,13.97
2022-09-20T06:48:25.250Z,14.02
2022-09-20T06:50:52.482Z,14.04
2022-09-20T06:53:27.409Z,14.11
2022-09-20T06:55:54.059Z,14.04
2022-09-20T06:58:20.541Z,13.95
2022-09-20T07:00:48.275Z,13.90
2022-09-20T07:03:19.598Z,13.83
2022-09-20T07:05:49.217Z,13.85
2022-09-20T07:08:18.599Z,13.84
2022-09-20T07:10:48.223Z,13.86
2022-09-20T07:13:14.857Z,13.88
2022-09-20T07:15:46.726Z,13.88
2022-09-20T07:18:15.723Z,13.93
2022-09-20T07:20:42.477Z,13.97
2022-09-20T07:23:08.997Z,14.06
2022-09-20T07:25:37.990Z,14.05
2022-09-20T07:28:04.539Z,14.17
2022-09-20T07:30:31.071Z,14.21
2022-09-20T07:32:57.655Z,14.30
2022-09-20T07:35:24.302Z,14.47
2022-09-20T07:37:57.025Z,14.63
2022-09-20T07:40:24.247Z,14.81
2022-09-20T07:42:54.269Z,14.95
2022-09-20T07:45:23.994Z,15.14
2022-09-20T07:47:50.915Z,15.33
2022-09-20T07:50:19.055Z,15.41
2022-09-20T07:52:47.964Z,15.28
2022-09-20T07:55:14.818Z,15.29
2022-09-20T07:57:43.854Z,16.62
2022-09-20T08:00:11.925Z,19.73
2022-09-20T08:02:38.524Z,21.10
2022-09-20T08:05:05.380Z,22.67
2022-09-20T08:07:34.658Z,23.74
2022-09-20T08:10:01.358Z,24.53
2022-09-20T08:15:14.767Z,26.25
2022-09-20T08:17:41.293Z,26.37
2022-09-20T08:20:08.353Z,26.70
2022-09-20T08:22:34.946Z,26.84
2022-09-20T08:25:01.773Z,27.44
2022-09-20T08:27:28.272Z,27.60
2022-09-20T08:29:57.553Z,27.36
2022-09-20T08:32:24.183Z,26.70
2022-09-20T08:34:50.677Z,25.29
2022-09-20T08:37:17.180Z,24.91
2022-09-20T08:40:01.418Z,23.47
2022-09-20T08:42:33.626Z,21.33
2022-09-20T08:45:05.776Z,22.67
2022-09-20T08:47:43.140Z,24.19
2022-09-20T08:50:17.511Z,24.78
2022-09-20T08:52:47.766Z,22.89
2022-09-20T08:55:24.002Z,21.74
2022-09-20T08:57:56.324Z,21.05
2022-09-20T09:00:26.381Z,20.53
2022-09-20T09:03:00.203Z,19.88
2022-09-20T09:05:42.863Z,19.69
2022-09-20T09:08:18.420Z,19.36
2022-09-20T09:10:51.473Z,19.18
2022-09-20T09:13:41.421Z,19.07
2022-09-20T09:16:22.608Z,19.17
2022-09-20T09:18:51.624Z,19.24
2022-09-20T09:21:22.486Z,19.14
2022-09-20T09:24:04.486Z,19.06
2022-09-20T09:26:40.054Z,18.46
2022-09-20T09:29:55.267Z,18.26
2022-09-20T09:32:23.906Z,18.15
2022-09-20T09:34:50.875Z,17.96
2022-09-20T09:37:31.342Z,17.73
2022-09-20T09:40:16.550Z,17.61
2022-09-20T09:42:55.051Z,17.69
2022-09-20T09:45:31.624Z,17.93
2022-09-20T09:48:03.032Z,18.06
2022-09-20T09:50:33.766Z,18.23
2022-09-20T09:53:13.820Z,18.59
2022-09-20T09:56:14.139Z,18.82
2022-09-20T09:58:56.209Z,18.76
2022-09-20T10:01:46.029Z,18.74
2022-09-20T10:04:36.222Z,18.57
2022-09-20T10:07:15.077Z,18.64
2022-09-20T10:10:09.640Z,18.91
2022-09-20T10:13:05.086Z,19.03
2022-09-20T10:15:45.603Z,19.02
2022-09-20T10:18:45.363Z,19.07
2022-09-20T10:21:43.525Z,19.14
2022-09-20T10:24:41.588Z,19.14
2022-09-20T10:27:48.391Z,19.43
2022-09-20T10:30:33.841Z,19.39
2022-09-20T10:33:29.492Z,19.49
2022-09-20T10:36:04.812Z,19.26
2022-09-20T10:38:41.151Z,19.12
2022-09-20T10:41:50.455Z,18.92
2022-09-20T10:44:22.260Z,18.84
2022-09-20T10:47:00.783Z,18.60
2022-09-20T10:49:40.150Z,18.60
2022-09-20T10:52:17.915Z,18.62
2022-09-20T10:55:20.387Z,18.82
2022-09-20T10:58:07.854Z,18.97
2022-09-20T11:00:58.610Z,18.90
2022-09-20T11:03:49.979Z,18.78
2022-09-20T11:06:55.566Z,18.54
2022-09-20T11:09:31.542Z,18.48
2022-09-20T11:12:39.642Z,18.26
2022-09-20T11:15:22.040Z,18.17
2022-09-20T11:18:15.118Z,17.94
2022-09-20T11:20:47.263Z,17.62
2022-09-20T11:23:26.346Z,17.54
2022-09-20T11:25:58.788Z,17.44
2022-09-20T11:28:31.535Z,17.38
2022-09-20T11:31:25.057Z,17.22
2022-09-20T11:34:13.480Z,16.97
2022-09-20T11:36:53.041Z,17.04
2022-09-20T11:39:26.728Z,16.96
2022-09-20T11:42:00.377Z,16.92
2022-09-20T11:44:29.933Z,16.99
2022-09-20T11:47:02.831Z,17.02
2022-09-20T11:49:54.520Z,17.07
2022-09-20T11:52:43.074Z,17.26
2022-09-20T11:55:29.581Z,17.42
2022-09-20T11:58:10.160Z,17.63
2022-09-20T12:00:41.400Z,17.73
2022-09-20T12:03:33.824Z,17.72
2022-09-20T12:06:06.950Z,17.86
2022-09-20T12:08:39.343Z,18.18
2022-09-20T12:11:13.777Z,18.10
2022-09-20T12:13:43.353Z,18.14
2022-09-20T12:16:20.238Z,18.30
2022-09-20T12:19:02.540Z,18.49
2022-09-20T12:21:29.147Z,18.44
2022-09-20T12:23:55.593Z,18.52
2022-09-20T12:26:22.124Z,18.80
2022-09-20T12:28:54.199Z,18.86
2022-09-20T12:31:31.978Z,18.73
2022-09-20T12:34:25.170Z,19.00
2022-09-20T12:36:54.594Z,19.06
2022-09-20T12:39:30.374Z,19.12
2022-09-20T12:42:12.507Z,19.23
2022-09-20T12:44:51.247Z,19.42
2022-09-20T12:47:24.716Z,19.65
2022-09-20T12:50:12.992Z,19.60
2022-09-20T12:52:56.323Z,19.32
2022-09-20T12:55:51.509Z,19.09
2022-09-20T12:58:22.905Z,19.15
2022-09-20T13:00:56.020Z,19.17
2022-09-20T13:03:23.177Z,19.16
2022-09-20T13:06:12.466Z,19.20
2022-09-20T13:09:01.089Z,19.34
2022-09-20T13:11:52.376Z,19.43
2022-09-20T13:14:24.137Z,19.42
2022-09-20T13:16:56.466Z,19.45
2022-09-20T13:19:34.179Z,19.72
2022-09-20T13:22:00.695Z,19.94
2022-09-20T13:24:37.716Z,20.04
2022-09-20T13:27:29.323Z,19.86
2022-09-20T13:29:55.884Z,19.60
2022-09-20T13:32:26.940Z,19.50
2022-09-20T13:35:24.025Z,19.52
2022-09-20T13:37:52.654Z,19.40
2022-09-20T13:40:20.793Z,19.41
2022-09-20T13:42:50.294Z,19.44
2022-09-20T13:45:19.649Z,19.56
2022-09-20T13:47:52.229Z,19.66
2022-09-20T13:50:30.457Z,19.67
2022-09-20T13:52:59.923Z,19.62
2022-09-20T13:55:30.014Z,19.41
2022-09-20T13:58:02.872Z,19.07
2022-09-20T14:00:31.582Z,19.05
2022-09-20T14:03:00.885Z,18.93
2022-09-20T14:05:31.280Z,18.87
2022-09-20T14:08:00.701Z,18.92
2022-09-20T14:10:37.228Z,19.08
2022-09-20T14:13:08.313Z,19.16
2022-09-20T14:15:38.829Z,19.35
2022-09-20T14:18:09.325Z,19.53
2022-09-20T14:20:38.448Z,19.49
2022-09-20T14:23:05.195Z,19.55
2022-09-20T14:25:33.465Z,19.42
2022-09-20T14:28:16.463Z,19.21
2022-09-20T14:30:43.439Z,19.14
2022-09-20T14:33:20.496Z,19.12
2022-09-20T14:35:54.870Z,19.13
2022-09-20T14:38:26.152Z,19.08
2022-09-20T14:40:52.987Z,19.08
2022-09-20T14:43:29.675Z,18.96
2022-09-20T14:46:02.039Z,18.93
2022-09-20T14:48:46.680Z,18.77
2022-09-20T14:51:16.416Z,18.61
2022-09-20T14:53:44.350Z,18.49
2022-09-20T14:56:13.922Z,18.28
2022-09-20T14:59:05.646Z,18.38
2022-09-20T15:01:33.505Z,18.41
2022-09-20T15:04:07.707Z,18.33
2022-09-20T15:06:40.162Z,18.28
2022-09-20T15:09:07.004Z,18.25
2022-09-20T15:11:36.831Z,18.31
2022-09-20T15:14:03.359Z,18.41
2022-09-20T15:16:29.942Z,18.33
2022-09-20T15:18:56.647Z,18.45
2022-09-20T15:21:23.467Z,18.36
2022-09-20T15:23:52.359Z,18.32
2022-09-20T15:26:21.210Z,18.42
2022-09-20T15:28:48.373Z,18.45
2022-09-20T15:31:17.196Z,18.43
2022-09-20T15:33:46.218Z,18.52
2022-09-20T15:36:12.746Z,18.53
2022-09-20T15:38:39.246Z,18.51
2022-09-20T15:41:08.215Z,18.39
2022-09-20T15:43:37.061Z,18.39
2022-09-20T15:46:21.554Z,18.44
2022-09-20T15:48:48.869Z,18.38
2022-09-20T15:51:15.769Z,18.25
2022-09-20T15:53:49.388Z,18.30
2022-09-20T15:56:22.007Z,18.25
2022-09-20T15:58:58.985Z,18.32
2022-09-20T16:01:36.941Z,18.33
2022-09-20T16:04:15.406Z,18.20
2022-09-20T16:06:43.822Z,18.22
2022-09-20T16:09:10.622Z,18.06
2022-09-20T16:11:38.387Z,17.95
2022-09-20T16:14:05.808Z,17.78
2022-09-20T16:16:39.977Z,17.70
2022-09-20T16:19:24.966Z,17.62
2022-09-20T16:21:59.377Z,17.56
2022-09-20T16:24:31.909Z,17.47
2022-09-20T16:27:01.543Z,17.43
2022-09-20T16:29:30.840Z,17.35
2022-09-20T16:31:58.834Z,17.33
2022-09-20T16:34:32.951Z,17.27
2022-09-20T16:37:11.750Z,17.25
2022-09-20T16:39:38.594Z,17.20
2022-09-20T16:42:13.418Z,17.05
2022-09-20T16:44:44.799Z,17.06
2022-09-20T16:47:22.332Z,17.03
2022-09-20T16:49:53.216Z,16.99
2022-09-20T16:52:19.860Z,16.89
2022-09-20T16:54:46.704Z,16.84
2022-09-20T16:57:15.454Z,16.79
2022-09-20T16:59:46.111Z,16.73
2022-09-20T17:02:15.862Z,16.67
2022-09-20T17:04:43.788Z,16.58
2022-09-20T17:07:10.452Z,16.54
2022-09-20T17:09:36.981Z,16.49
2022-09-20T17:12:04.403Z,16.40
2022-09-20T17:14:31.202Z,16.28
2022-09-20T17:16:59.978Z,16.25
2022-09-20T17:19:26.918Z,16.10
2022-09-20T17:21:53.569Z,16.11
2022-09-20T17:24:24.883Z,15.99
2022-09-20T17:26:51.693Z,15.94
2022-09-20T17:29:19.751Z,15.90
2022-09-20T17:31:54.500Z,15.83
2022-09-20T17:34:22.931Z,15.83
2022-09-20T17:36:50.814Z,15.75
2022-09-20T17:39:17.547Z,15.70
2022-09-20T17:41:48.534Z,15.69
2022-09-20T17:44:16.594Z,15.65
2022-09-20T17:46:48.375Z,15.59
2022-09-20T17:49:22.067Z,15.53
2022-09-20T17:51:53.930Z,15.48
2022-09-20T17:54:22.071Z,15.40
2022-09-20T17:56:50.693Z,15.32
2022-09-20T17:59:18.680Z,15.30
2022-09-20T18:01:49.472Z,15.22
2022-09-20T18:04:20.770Z,15.15
2022-09-20T18:06:55.030Z,15.21
2022-09-20T18:09:24.762Z,15.21
2022-09-20T18:11:53.266Z,15.18
2022-09-20T18:14:23.226Z,15.22
2022-09-20T18:16:59.989Z,15.25
2022-09-20T18:19:33.023Z,15.26
2022-09-20T18:22:02.901Z,15.29
2022-09-20T18:24:30.484Z,15.28
2022-09-20T18:27:00.612Z,15.26
2022-09-20T18:29:28.692Z,15.21
2022-09-20T18:31:59.713Z,15.15
2022-09-20T18:34:33.606Z,15.10
2022-09-20T18:37:01.413Z,15.01
2022-09-20T18:39:31.015Z,14.94
2022-09-20T18:41:57.692Z,14.86
2022-09-20T18:44:24.473Z,14.76
2022-09-20T18:46:53.085Z,14.71
2022-09-20T18:49:21.481Z,14.61
2022-09-20T18:51:48.834Z,14.58
2022-09-20T18:54:16.226Z,14.44
2022-09-20T18:56:45.014Z,14.44
2022-09-20T18:59:17.660Z,14.27
2022-09-20T19:02:02.257Z,14.34
2022-09-20T19:04:53.294Z,14.26
2022-09-20T19:07:31.477Z,14.25
2022-09-20T19:10:10.155Z,14.20
2022-09-20T19:12:45.521Z,14.17
2022-09-20T19:15:37.610Z,14.14
2022-09-20T19:18:18.410Z,14.11
2022-09-20T19:20:56.526Z,14.05
2022-09-20T19:23:58.863Z,13.86
2022-09-20T19:26:30.743Z,13.96
2022-09-20T19:29:00.072Z,13.89
2022-09-20T19:31:35.681Z,13.88
2022-09-20T19:34:11.944Z,13.83
2022-09-20T19:37:00.120Z,13.83
2022-09-20T19:39:48.660Z,13.78
2022-09-20T19:42:41.510Z,13.74
2022-09-20T19:45:23.249Z,13.72
2022-09-20T19:48:06.556Z,13.67
2022-09-20T19:50:48.194Z,13.71
2022-09-20T19:53:17.090Z,13.71
2022-09-20T19:55:50.841Z,13.71
2022-09-20T19:58:20.040Z,13.70
2022-09-20T20:00:47.349Z,13.76
2022-09-20T20:03:16.094Z,13.74
2022-09-20T20:05:52.310Z,13.77
2022-09-20T20:08:38.774Z,13.78
2022-09-20T20:11:05.272Z,13.82
2022-09-20T20:14:02.455Z,13.83
2022-09-20T20:16:50.702Z,13.82
2022-09-20T20:19:43.360Z,13.83
2022-09-20T20:22:18.962Z,13.82
2022-09-20T20:24:53.320Z,13.82
2022-09-20T20:27:20.808Z,13.80
2022-09-20T20:29:47.341Z,13.81
2022-09-20T20:32:15.112Z,13.80
2022-09-20T20:34:44.345Z,13.77
2022-09-20T20:37:13.930Z,13.79
2022-09-20T20:39:40.437Z,13.74
2022-09-20T20:42:08.439Z,13.77
2022-09-20T20:44:35.005Z,13.69
2022-09-20T20:47:06.550Z,13.76
2022-09-20T20:49:33.751Z,13.75
2022-09-20T20:52:04.619Z,13.74
2022-09-20T20:54:32.281Z,13.74
2022-09-20T20:56:59.277Z,13.74
2022-09-20T20:59:25.831Z,13.35
2022-09-20T21:01:52.373Z,13.69
2022-09-20T21:04:23.289Z,13.71
2022-09-20T21:06:50.453Z,13.68
2022-09-20T21:09:19.215Z,13.65
2022-09-20T21:11:48.351Z,13.68
2022-09-20T21:14:15.974Z,13.64
2022-09-20T21:16:43.461Z,13.65
2022-09-20T21:19:15.043Z,13.60
2022-09-20T21:21:43.344Z,13.58
2022-09-20T21:24:18.036Z,13.61
2022-09-20T21:26:44.770Z,13.61
2022-09-20T21:29:14.514Z,13.53
2022-09-20T21:31:43.698Z,13.59
2022-09-20T21:34:12.200Z,13.55
2022-09-20T21:36:41.366Z,13.49
2022-09-20T21:39:08.775Z,13.54
2022-09-20T21:41:37.424Z,13.60
2022-09-20T21:44:05.253Z,13.60
2022-09-20T21:46:34.715Z,13.59
2022-09-20T21:49:06.688Z,13.44
2022-09-20T21:51:33.605Z,13.37
2022-09-20T21:54:01.753Z,13.49
2022-09-20T21:56:33.092Z,13.46
2022-09-20T21:59:04.052Z,13.46
2022-09-20T22:01:41.222Z,13.43
2022-09-20T22:04:10.107Z,13.45
2022-09-20T22:06:39.196Z,13.42
2022-09-20T22:09:17.002Z,13.42
2022-09-20T22:11:46.066Z,13.40
2022-09-20T22:14:14.475Z,13.26
2022-09-20T22:16:43.172Z,13.33
2022-09-20T22:19:11.849Z,13.38
2022-09-20T22:21:41.282Z,13.40
2022-09-20T22:24:10.594Z,13.39
2022-09-20T22:26:45.980Z,13.35
2022-09-20T22:29:15.063Z,13.31
2022-09-20T22:31:47.101Z,13.29
2022-09-20T22:34:17.018Z,13.27
2022-09-20T22:36:46.901Z,13.26
2022-09-20T22:39:14.249Z,13.17
2022-09-20T22:41:42.773Z,13.23
2022-09-20T22:44:10.655Z,13.20
2022-09-20T22:46:38.265Z,13.21
2022-09-20T22:49:06.628Z,13.12
2022-09-20T22:51:36.503Z,13.20
2022-09-20T22:54:09.235Z,13.16
2022-09-20T22:56:39.468Z,13.14
2022-09-20T22:59:13.916Z,13.08
2022-09-20T23:01:49.530Z,13.13
2022-09-20T23:04:20.096Z,13.12
2022-09-20T23:06:51.931Z,13.12
2022-09-20T23:09:19.180Z,13.09
2022-09-20T23:11:46.915Z,13.10
2022-09-20T23:14:18.779Z,13.09
2022-09-20T23:16:46.364Z,13.09
2022-09-20T23:19:14.212Z,13.04
2022-09-20T23:21:42.458Z,13.02
2022-09-20T23:24:11.635Z,12.91
2022-09-20T23:26:42.027Z,12.95
2022-09-20T23:29:15.326Z,12.90
2022-09-20T23:31:46.159Z,12.86
2022-09-20T23:34:14.523Z,12.84
2022-09-20T23:36:42.568Z,12.79
2022-09-20T23:39:10.561Z,12.77
2022-09-20T23:41:37.880Z,12.77
2022-09-20T23:44:06.676Z,12.75
2022-09-20T23:46:34.020Z,12.75
2022-09-20T23:49:00.841Z,12.73
2022-09-20T23:51:29.107Z,12.67
2022-09-20T23:53:56.264Z,12.66
2022-09-20T23:56:26.842Z,12.64
2022-09-20T23:58:54.254Z,12.58
